Time;durP1;ratioP1;P1;durP2;ratioP2;P2;SDS_P1;SDS_P2;PMS_P1;PMS_P2;Temp;Humidity;BMP_temperature;BMP_pressure;BME280_temperature;BME280_humidity;BME280_pressure;Samples;Min_cycle;Max_cycle;Signal;HPM_P1;HPM_P2
2021/09/13 00:02:00;;;;;;;11.10;10.30;;;;;;;14.92;85.18;100558.75;5003465;28;20243;-77
2021/09/13 00:04:27;;;;;;;10.73;10.00;;;;;;;14.97;85.34;100558.63;5004776;28;20244;-78
2021/09/13 00:06:53;;;;;;;8.37;7.77;;;;;;;15.07;86.53;100521.41;5004808;28;20212;-76
2021/09/13 00:09:20;;;;;;;9.73;8.93;;;;;;;15.14;86.68;100518.56;5004667;28;20460;-77
2021/09/13 00:11:46;;;;;;;9.40;8.60;;;;;;;15.20;86.57;100531.47;5003304;28;20230;-78
2021/09/13 00:14:12;;;;;;;11.17;10.13;;;;;;;14.90;85.50;100563.22;5005125;28;20476;-78
2021/09/13 00:16:40;;;;;;;11.40;10.53;;;;;;;14.82;85.92;100560.00;5004724;28;20257;-76
2021/09/13 00:19:07;;;;;;;10.20;9.40;;;;;;;14.94;87.31;100524.53;5004099;28;20234;-77
2021/09/13 00:21:33;;;;;;;10.97;10.17;;;;;;;14.78;86.08;100550.50;5004727;28;20546;-79
2021/09/13 00:23:59;;;;;;;9.93;9.13;;;;;;;14.88;87.21;100531.75;5004283;28;20264;-79
2021/09/13 00:26:26;;;;;;;10.97;10.17;;;;;;;14.73;86.16;100561.19;5004704;28;20208;-79
2021/09/13 00:28:52;;;;;;;11.20;10.40;;;;;;;14.57;86.26;100554.69;5004144;28;20208;-78
2021/09/13 00:31:18;;;;;;;11.00;10.30;;;;;;;14.53;86.54;100539.94;5004472;28;20956;-76
2021/09/13 00:33:46;;;;;;;12.27;11.27;;;;;;;14.58;86.72;100530.16;5004285;28;20217;-79
2021/09/13 00:36:12;;;;;;;11.90;10.90;;;;;;;14.60;86.55;100536.22;5004514;28;21413;-79
2021/09/13 00:38:39;;;;;;;11.70;10.77;;;;;;;14.66;86.57;100544.75;5003595;28;20218;-77
2021/09/13 00:41:05;;;;;;;12.73;11.83;;;;;;;14.57;86.67;100550.34;5004006;28;20279;-77
2021/09/13 00:43:32;;;;;;;12.80;12.00;;;;;;;14.45;86.34;100554.19;5004356;28;20585;-79
2021/09/13 00:45:58;;;;;;;13.30;12.20;;;;;;;14.37;87.99;100514.19;5003028;28;20210;-77
2021/09/13 00:48:25;;;;;;;13.03;12.13;;;;;;;14.37;88.17;100501.06;5003373;28;20215;-77
2021/09/13 00:50:52;;;;;;;13.60;12.50;;;;;;;14.39;88.09;100498.38;5004072;28;20262;-78
2021/09/13 00:53:19;;;;;;;13.60;12.57;;;;;;;14.34;88.25;100489.81;5003729;28;20211;-78
2021/09/13 00:55:46;;;;;;;13.70;12.70;;;;;;;14.37;88.63;100490.56;5003456;28;20209;-78
2021/09/13 00:58:12;;;;;;;11.73;10.93;;;;;;;14.49;88.73;100484.88;5003347;28;20201;-80
2021/09/13 01:00:39;;;;;;;11.40;10.60;;;;;;;14.49;88.71;100487.50;5003808;28;20287;-78
2021/09/13 01:03:05;;;;;;;11.13;10.40;;;;;;;14.53;88.93;100490.03;5003476;28;20263;-77
2021/09/13 01:05:32;;;;;;;11.87;11.07;;;;;;;14.59;89.26;100474.97;5002640;28;20216;-78
2021/09/13 01:07:59;;;;;;;11.53;10.73;;;;;;;14.59;88.41;100489.84;5003525;28;20206;-78
2021/09/13 01:10:27;;;;;;;13.80;12.70;;;;;;;14.58;87.84;100499.50;5003882;28;20209;-78
2021/09/13 01:12:53;;;;;;;12.20;11.13;;;;;;;14.63;88.20;100507.25;5003218;28;20712;-76
2021/09/13 01:15:20;;;;;;;14.00;12.93;;;;;;;14.55;88.31;100496.97;5003442;28;20209;-78
2021/09/13 01:17:46;;;;;;;14.47;13.43;;;;;;;14.51;88.49;100497.97;5002845;28;20675;-78
2021/09/13 01:20:13;;;;;;;12.50;11.47;;;;;;;14.58;88.78;100480.25;5003208;28;20230;-77
2021/09/13 01:22:40;;;;;;;12.53;11.33;;;;;;;14.62;88.65;100480.09;5003467;28;20241;-79
2021/09/13 01:25:09;;;;;;;11.50;10.50;;;;;;;14.70;88.92;100491.19;5002951;28;20209;-78
2021/09/13 01:27:36;;;;;;;10.97;10.10;;;;;;;14.72;88.44;100500.78;5003188;28;20205;-78
2021/09/13 01:30:04;;;;;;;14.03;12.53;;;;;;;14.75;88.18;100511.22;5003616;28;20209;-78
2021/09/13 01:32:30;;;;;;;10.03;9.33;;;;;;;14.80;88.33;100506.63;5003708;28;20287;-78
2021/09/13 01:34:57;;;;;;;9.33;8.63;;;;;;;14.89;88.64;100493.16;5003023;28;20259;-77
2021/09/13 01:37:23;;;;;;;8.67;8.13;;;;;;;14.93;88.04;100507.91;5002658;28;20472;-77
2021/09/13 01:39:49;;;;;;;9.70;9.00;;;;;;;14.98;87.71;100527.00;5003523;28;20752;-78
2021/09/13 01:42:17;;;;;;;10.00;9.27;;;;;;;14.99;87.35;100548.91;5003119;28;20957;-79
2021/09/13 01:44:43;;;;;;;10.40;8.03;;;;;;;15.03;86.61;100568.91;5003167;28;20218;-79
2021/09/13 01:47:10;;;;;;;8.70;8.00;;;;;;;14.96;85.91;100599.78;5003915;28;20275;-77
2021/09/13 01:49:36;;;;;;;9.33;8.67;;;;;;;15.01;86.62;100573.38;5003086;28;20209;-79
2021/09/13 01:52:03;;;;;;;8.83;8.13;;;;;;;14.98;86.02;100590.09;5003147;28;20229;-79
2021/09/13 01:54:29;;;;;;;8.93;8.33;;;;;;;15.01;87.33;100562.84;5002562;28;20217;-78
2021/09/13 01:56:56;;;;;;;9.57;8.87;;;;;;;15.01;87.66;100549.69;5003849;28;20209;-78
2021/09/13 01:59:23;;;;;;;10.00;9.23;;;;;;;14.99;86.57;100573.41;5003043;28;20217;-77
2021/09/13 02:01:50;;;;;;;9.70;8.70;;;;;;;14.95;85.98;100599.88;5002606;28;20488;-79
2021/09/13 02:04:16;;;;;;;10.10;9.40;;;;;;;14.92;86.63;100582.41;5003277;28;20209;-78
2021/09/13 02:06:42;;;;;;;9.87;8.90;;;;;;;14.90;86.62;100586.88;5002998;28;20617;-78
2021/09/13 02:09:09;;;;;;;9.40;8.80;;;;;;;14.91;86.47;100596.47;5003198;28;20259;-76
2021/09/13 02:11:36;;;;;;;11.10;8.80;;;;;;;14.92;86.93;100578.94;5001570;28;20711;-79
2021/09/13 02:14:02;;;;;;;9.93;9.17;;;;;;;14.99;88.02;100552.38;5002908;28;20547;-79
2021/09/13 02:16:30;;;;;;;9.30;8.47;;;;;;;15.04;87.12;100562.72;5005169;28;20218;-77
2021/09/13 02:18:56;;;;;;;11.97;11.17;;;;;;;14.93;86.63;100596.44;5006038;28;20893;-78
2021/09/13 02:21:23;;;;;;;9.93;9.23;;;;;;;14.99;87.22;100580.44;5005360;28;20239;-79
2021/09/13 02:23:49;;;;;;;9.43;8.73;;;;;;;14.98;86.99;100579.56;5006108;28;21067;-78
2021/09/13 02:26:15;;;;;;;11.83;10.80;;;;;;;15.02;87.32;100581.16;5006706;28;20200;-78
2021/09/13 02:28:42;;;;;;;8.67;7.97;;;;;;;14.97;86.35;100593.63;5005593;28;20274;-79
2021/09/13 02:31:08;;;;;;;9.13;8.53;;;;;;;14.97;86.86;100596.25;5006496;28;22026;-78
2021/09/13 02:33:36;;;;;;;10.90;10.03;;;;;;;14.87;86.12;100611.50;5006594;28;20208;-78
2021/09/13 02:36:02;;;;;;;12.27;11.23;;;;;;;14.77;87.17;100594.31;5006959;28;20263;-78
2021/09/13 02:38:29;;;;;;;10.53;9.70;;;;;;;14.81;87.00;100582.78;5006602;28;20221;-78
2021/09/13 02:40:55;;;;;;;11.83;11.03;;;;;;;14.68;87.06;100578.84;5005545;28;20229;-78
2021/09/13 02:43:22;;;;;;;11.97;11.07;;;;;;;14.75;87.54;100571.66;5007007;28;20272;-78
2021/09/13 02:45:48;;;;;;;13.07;12.17;;;;;;;14.70;87.59;100563.91;5006566;28;20208;-76
2021/09/13 02:48:14;;;;;;;13.23;11.80;;;;;;;14.70;87.72;100566.53;5006600;28;20741;-78
2021/09/13 02:50:42;;;;;;;11.93;11.00;;;;;;;14.76;88.12;100561.06;5005501;28;20800;-78
2021/09/13 02:53:08;;;;;;;12.70;11.70;;;;;;;14.78;87.74;100566.25;5006365;28;20238;-78
2021/09/13 02:55:36;;;;;;;10.63;9.93;;;;;;;14.74;87.16;100586.53;5006399;28;21345;-77
2021/09/13 02:58:03;;;;;;;11.30;10.40;;;;;;;14.70;86.72;100605.94;5005530;28;20248;-78
2021/09/13 03:00:29;;;;;;;10.10;9.10;;;;;;;14.69;86.64;100610.34;5006006;28;20283;-77
2021/09/13 03:02:55;;;;;;;10.73;9.73;;;;;;;14.73;86.38;100618.09;5006083;28;20236;-77
2021/09/13 03:05:22;;;;;;;12.23;11.23;;;;;;;14.70;85.99;100621.69;5006457;28;20209;-78
2021/09/13 03:07:50;;;;;;;10.87;9.93;;;;;;;14.64;85.90;100629.78;5005609;28;20279;-78
2021/09/13 03:10:16;;;;;;;11.70;10.53;;;;;;;14.62;86.53;100615.84;5006455;28;20212;-78
2021/09/13 03:12:42;;;;;;;11.70;9.83;;;;;;;14.61;87.05;100601.00;5006240;28;20280;-78
2021/09/13 03:15:10;;;;;;;10.97;10.23;;;;;;;14.56;86.98;100582.75;5006455;28;20264;-79
2021/09/13 03:17:39;;;;;;;11.83;10.80;;;;;;;14.52;87.55;100578.47;5006573;28;20268;-79
2021/09/13 03:20:07;;;;;;;12.20;11.00;;;;;;;14.55;87.23;100580.13;5005525;28;20228;-79
2021/09/13 03:22:33;;;;;;;12.83;11.50;;;;;;;14.49;88.18;100550.56;5005752;28;21037;-78
2021/09/13 03:25:01;;;;;;;10.97;10.27;;;;;;;14.50;87.14;100583.78;5005591;28;20280;-79
2021/09/13 03:27:28;;;;;;;11.80;10.90;;;;;;;14.42;88.17;100559.53;5004363;28;20236;-79
2021/09/13 03:29:54;;;;;;;12.57;11.43;;;;;;;14.46;88.15;100549.78;5005004;28;20221;-77
2021/09/13 03:32:21;;;;;;;12.03;10.80;;;;;;;14.47;88.20;100557.63;5005409;28;20229;-78
2021/09/13 03:34:47;;;;;;;11.70;10.70;;;;;;;14.46;87.70;100566.41;5005664;28;20284;-79
2021/09/13 03:37:13;;;;;;;14.13;13.03;;;;;;;14.41;88.31;100562.19;5005875;28;20339;-77
2021/09/13 03:39:40;;;;;;;13.00;11.93;;;;;;;14.37;88.69;100539.56;5005964;28;20210;-78
2021/09/13 03:42:08;;;;;;;12.47;11.60;;;;;;;14.39;88.75;100528.13;5004358;28;20241;-78
2021/09/13 03:44:34;;;;;;;11.40;10.60;;;;;;;14.37;87.98;100552.72;5005830;28;20216;-80
2021/09/13 03:47:00;;;;;;;11.57;10.53;;;;;;;14.37;87.16;100569.34;5005227;28;20210;-80
2021/09/13 03:49:27;;;;;;;11.43;10.63;;;;;;;14.35;87.27;100576.41;5005483;28;20209;-78
2021/09/13 03:51:53;;;;;;;12.13;11.23;;;;;;;14.39;87.11;100579.78;5004990;28;20301;-80
2021/09/13 03:54:20;;;;;;;12.30;11.50;;;;;;;14.40;87.89;100557.88;5006471;28;20206;-77
2021/09/13 03:56:46;;;;;;;11.90;10.90;;;;;;;14.30;86.36;100589.69;5006231;28;20227;-79
2021/09/13 03:59:14;;;;;;;12.70;11.67;;;;;;;14.24;87.89;100557.53;5005133;28;20210;-77
2021/09/13 04:01:41;;;;;;;12.77;11.77;;;;;;;14.24;87.30;100563.63;5005844;28;20621;-77
2021/09/13 04:04:08;;;;;;;12.33;11.27;;;;;;;14.27;87.25;100574.03;5004947;28;20683;-79
2021/09/13 04:06:42;;;;;;;11.87;10.77;;;;;;;14.28;87.66;100557.34;5005926;28;20260;-79
2021/09/13 04:11:55;;;;;;;12.40;11.27;;;;;;;14.18;86.32;100605.81;5004111;28;20356;-79
2021/09/13 04:14:23;;;;;;;12.40;11.40;;;;;;;14.09;86.39;100601.72;5004841;28;20205;-78
2021/09/13 04:16:50;;;;;;;12.00;10.90;;;;;;;14.12;86.54;100598.16;5004867;28;20228;-79
2021/09/13 04:19:16;;;;;;;12.83;11.73;;;;;;;13.99;88.64;100557.44;5004767;28;20213;-79
2021/09/13 04:21:43;;;;;;;10.77;9.93;;;;;;;14.03;88.07;100538.94;5003903;28;20237;-78
2021/09/13 04:24:10;;;;;;;11.00;10.23;;;;;;;14.10;89.26;100521.22;5004446;28;20214;-79
2021/09/13 04:26:36;;;;;;;9.73;9.00;;;;;;;14.07;88.02;100552.78;5004032;28;20291;-78
2021/09/13 04:29:03;;;;;;;11.30;10.50;;;;;;;14.05;87.17;100581.72;5004035;28;20721;-79
2021/09/13 04:31:31;;;;;;;10.97;10.17;;;;;;;14.04;87.30;100581.78;5005035;28;20229;-78
2021/09/13 04:33:58;;;;;;;10.67;9.60;;;;;;;14.05;87.30;100572.97;5004696;28;20208;-77
2021/09/13 04:36:24;;;;;;;10.37;9.57;;;;;;;14.07;86.66;100584.28;5005106;28;20354;-77
2021/09/13 04:38:51;;;;;;;9.53;8.70;;;;;;;14.03;86.78;100598.41;5002864;28;20217;-79
2021/09/13 04:41:18;;;;;;;10.63;9.70;;;;;;;13.97;86.88;100590.72;5003776;28;20357;-77
2021/09/13 04:43:44;;;;;;;9.40;8.60;;;;;;;13.97;87.20;100588.09;5003234;28;20229;-78
2021/09/13 04:46:10;;;;;;;9.20;8.60;;;;;;;14.00;87.39;100574.91;5003821;28;20211;-79
2021/09/13 04:48:38;;;;;;;11.30;10.33;;;;;;;13.85;88.81;100537.72;5003974;28;20217;-77
2021/09/13 04:51:05;;;;;;;10.73;9.93;;;;;;;13.90;88.52;100542.84;5003757;28;20236;-76
2021/09/13 04:53:31;;;;;;;10.33;9.40;;;;;;;13.92;88.04;100562.00;5003462;28;20213;-79
2021/09/13 04:55:58;;;;;;;9.53;8.73;;;;;;;13.96;88.09;100557.53;5004188;28;20205;-79
2021/09/13 04:58:24;;;;;;;9.43;8.70;;;;;;;13.99;88.02;100562.69;5003667;28;20571;-76
2021/09/13 05:00:50;;;;;;;9.27;8.47;;;;;;;13.99;87.12;100581.91;5003372;28;20650;-78
2021/09/13 05:03:17;;;;;;;9.33;8.50;;;;;;;14.00;87.63;100586.25;5004152;28;20205;-79
2021/09/13 05:05:44;;;;;;;8.60;7.90;;;;;;;13.99;87.14;100588.91;5003428;28;20790;-77
2021/09/13 05:08:11;;;;;;;9.13;8.30;;;;;;;13.97;87.75;100585.47;5003875;28;20204;-79
2021/09/13 05:10:37;;;;;;;8.63;7.93;;;;;;;13.96;86.83;100602.16;5003765;28;20264;-78
2021/09/13 05:13:05;;;;;;;8.97;8.07;;;;;;;13.94;87.41;100603.97;5003464;28;20293;-77
2021/09/13 05:15:33;;;;;;;9.37;8.67;;;;;;;13.95;88.41;100575.03;5004073;28;20225;-79
2021/09/13 05:18:01;;;;;;;8.47;7.77;;;;;;;13.90;89.37;100550.72;5003182;28;20208;-78
2021/09/13 05:20:27;;;;;;;10.17;8.97;;;;;;;13.84;89.22;100541.25;5003691;28;20237;-79
2021/09/13 05:22:55;;;;;;;9.93;9.03;;;;;;;13.63;89.82;100526.16;5003266;28;20240;-77
2021/09/13 05:25:21;;;;;;;10.00;9.07;;;;;;;13.69;90.56;100507.63;5003754;28;20216;-78
2021/09/13 05:27:48;;;;;;;10.83;9.93;;;;;;;13.64;90.54;100515.63;5003867;28;20266;-77
2021/09/13 05:30:15;;;;;;;11.00;10.20;;;;;;;13.56;90.47;100506.25;5003089;28;20246;-78
2021/09/13 05:32:42;;;;;;;11.50;10.60;;;;;;;13.49;91.21;100508.22;5003006;28;20221;-76
2021/09/13 05:35:09;;;;;;;12.30;11.13;;;;;;;13.27;92.26;100484.38;5003598;28;20217;-79
2021/09/13 05:37:35;;;;;;;11.33;10.43;;;;;;;13.23;92.77;100465.25;5002891;28;20212;-78
2021/09/13 05:40:05;;;;;;;12.73;11.73;;;;;;;13.30;92.78;100463.34;5001683;28;20204;-78
2021/09/13 05:42:32;;;;;;;13.23;12.23;;;;;;;13.29;92.55;100469.44;5002709;28;20242;-75
2021/09/13 05:44:58;;;;;;;11.70;10.80;;;;;;;13.43;91.87;100475.16;5003205;28;20216;-80
2021/09/13 05:47:25;;;;;;;12.33;11.43;;;;;;;13.55;91.26;100505.41;5002875;28;20687;-79
2021/09/13 05:49:51;;;;;;;14.37;13.23;;;;;;;13.20;92.84;100495.94;5002253;28;20216;-78
2021/09/13 05:52:17;;;;;;;15.10;13.77;;;;;;;13.03;93.13;100467.59;5001466;28;20233;-81
2021/09/13 05:54:44;;;;;;;14.37;13.20;;;;;;;13.07;93.78;100438.63;5003806;28;20271;-81
2021/09/13 05:57:11;;;;;;;15.70;14.50;;;;;;;12.96;94.64;100418.88;5005536;28;20263;-80
2021/09/13 05:59:38;;;;;;;16.17;14.87;;;;;;;12.96;95.20;100404.00;5007033;28;20239;-80
2021/09/13 06:02:04;;;;;;;17.50;16.10;;;;;;;13.03;94.96;100396.84;5006504;28;20236;-80
2021/09/13 06:04:33;;;;;;;17.20;15.57;;;;;;;13.13;95.34;100397.44;5003834;28;20499;-78
2021/09/13 06:07:00;;;;;;;16.23;14.83;;;;;;;13.29;94.89;100417.03;5001975;28;20736;-79
2021/09/13 06:09:26;;;;;;;16.00;14.80;;;;;;;13.49;93.96;100434.78;5000692;28;20205;-78
2021/09/13 06:11:53;;;;;;;14.43;13.23;;;;;;;13.68;93.50;100456.91;5001368;28;20571;-79
2021/09/13 06:14:20;;;;;;;14.93;13.80;;;;;;;13.82;92.35;100481.88;5001414;28;20260;-77
2021/09/13 06:16:47;;;;;;;13.93;12.67;;;;;;;13.95;92.12;100501.53;5002040;28;20218;-79
2021/09/13 06:19:13;;;;;;;13.07;11.97;;;;;;;14.03;91.33;100527.53;5001060;28;20208;-78
2021/09/13 06:21:40;;;;;;;13.10;12.10;;;;;;;14.16;90.64;100533.28;5001845;28;20288;-79
2021/09/13 06:24:06;;;;;;;11.50;10.60;;;;;;;14.23;90.73;100540.91;5001975;28;20210;-76
2021/09/13 06:26:32;;;;;;;10.80;10.00;;;;;;;14.34;90.50;100555.44;5001491;28;20217;-79
2021/09/13 06:28:59;;;;;;;12.00;11.00;;;;;;;14.32;90.27;100557.28;5001387;28;20485;-77
2021/09/13 06:31:26;;;;;;;12.37;11.20;;;;;;;14.22;91.22;100539.19;5001377;28;20229;-78
2021/09/13 06:33:53;;;;;;;11.37;10.43;;;;;;;14.30;90.71;100552.91;5002288;28;20267;-79
2021/09/13 06:36:19;;;;;;;12.63;11.63;;;;;;;14.41;90.28;100565.72;5001158;28;20256;-78
2021/09/13 06:38:45;;;;;;;12.20;11.17;;;;;;;14.31;91.05;100561.69;5002102;28;20218;-79
2021/09/13 06:41:12;;;;;;;12.20;11.10;;;;;;;14.35;90.97;100547.53;5001921;28;20229;-79
2021/09/13 06:43:40;;;;;;;10.77;9.67;;;;;;;14.32;91.58;100539.75;5002467;28;20213;-78
2021/09/13 06:46:12;;;;;;;10.50;9.70;;;;;;;14.26;92.00;100522.41;5002417;28;20216;-77
2021/09/13 06:48:43;;;;;;;10.70;9.77;;;;;;;14.28;92.30;100514.50;5002206;28;20245;-79
2021/09/13 06:51:10;;;;;;;9.10;8.30;;;;;;;14.29;92.51;100510.94;5002180;28;20256;-79
2021/09/13 06:53:36;;;;;;;8.93;8.23;;;;;;;14.29;92.71;100506.56;5000425;28;20711;-77
2021/09/13 06:56:04;;;;;;;9.13;8.23;;;;;;;14.40;92.66;100508.81;5000626;28;20746;-77
2021/09/13 06:58:31;;;;;;;8.40;7.70;;;;;;;14.55;92.53;100520.59;5002254;28;20237;-79
2021/09/13 07:00:58;;;;;;;8.13;7.43;;;;;;;14.49;92.36;100523.44;5003244;28;20218;-80
2021/09/13 07:03:24;;;;;;;7.93;7.30;;;;;;;14.52;92.57;100533.81;5004025;28;20265;-78
2021/09/13 07:05:52;;;;;;;9.63;7.77;;;;;;;14.38;92.72;100525.56;5006192;28;20212;-81
2021/09/13 07:08:19;;;;;;;8.87;8.07;;;;;;;14.35;93.29;100520.38;5005639;28;20236;-78
2021/09/13 07:10:45;;;;;;;8.20;7.40;;;;;;;14.41;93.26;100513.19;5004155;28;20222;-77
2021/09/13 07:13:12;;;;;;;9.03;8.33;;;;;;;14.63;93.25;100518.59;5005462;28;20638;-79
2021/09/13 07:15:38;;;;;;;7.10;6.60;;;;;;;14.72;92.75;100537.56;5005299;28;20267;-77
2021/09/13 07:18:04;;;;;;;7.37;6.77;;;;;;;14.77;92.06;100548.81;5004855;28;20344;-77
2021/09/13 07:20:31;;;;;;;8.00;7.40;;;;;;;14.94;92.22;100561.34;5006652;28;20684;-78
2021/09/13 07:22:59;;;;;;;7.93;7.23;;;;;;;15.09;91.41;100582.69;5005070;28;20237;-78
2021/09/13 07:25:25;;;;;;;6.43;5.83;;;;;;;15.06;89.98;100626.63;5005209;28;20213;-78
2021/09/13 07:27:52;;;;;;;6.50;6.00;;;;;;;15.09;89.91;100640.53;5006439;28;20206;-79
2021/09/13 07:30:18;;;;;;;6.23;5.73;;;;;;;15.17;89.41;100652.56;5007101;28;20260;-80
2021/09/13 07:32:44;;;;;;;6.50;6.00;;;;;;;15.28;88.94;100666.19;5004040;28;20223;-78
2021/09/13 07:35:12;;;;;;;7.00;6.40;;;;;;;15.34;88.44;100681.78;5006008;28;20210;-78
2021/09/13 07:37:39;;;;;;;6.63;6.03;;;;;;;15.33;88.53;100694.97;5005550;28;20252;-79
2021/09/13 07:40:08;;;;;;;5.73;5.30;;;;;;;15.19;88.04;100709.44;5006316;28;20213;-81
2021/09/13 07:42:34;;;;;;;6.27;5.67;;;;;;;15.22;88.53;100690.06;5005354;28;20232;-81
2021/09/13 07:45:02;;;;;;;6.00;5.50;;;;;;;15.27;88.37;100694.25;5006383;28;20927;-81
2021/09/13 07:47:30;;;;;;;5.63;5.23;;;;;;;15.31;87.68;100709.94;5005168;28;20393;-80
2021/09/13 07:49:56;;;;;;;6.27;5.77;;;;;;;15.43;88.81;100691.94;5005722;28;21171;-80
2021/09/13 07:52:23;;;;;;;6.33;5.73;;;;;;;15.35;88.10;100698.41;5005882;28;20284;-80
2021/09/13 07:54:49;;;;;;;5.80;5.40;;;;;;;15.44;87.47;100724.38;5006029;28;20852;-80
2021/09/13 07:57:17;;;;;;;7.50;6.80;;;;;;;15.27;87.87;100715.28;5004453;28;20252;-80
2021/09/13 07:59:43;;;;;;;7.13;6.53;;;;;;;15.13;88.56;100703.53;5004136;28;20209;-78
2021/09/13 08:02:12;;;;;;;7.40;6.90;;;;;;;15.27;89.10;100672.38;5004347;28;20618;-77
2021/09/13 08:04:39;;;;;;;7.50;6.90;;;;;;;15.32;89.08;100678.34;5005042;28;20289;-76
2021/09/13 08:07:05;;;;;;;7.83;7.23;;;;;;;15.36;88.82;100690.47;5004710;28;20265;-80
2021/09/13 08:09:31;;;;;;;7.57;6.97;;;;;;;15.41;88.87;100690.28;5003943;28;20218;-80
2021/09/13 08:11:58;;;;;;;8.33;7.70;;;;;;;15.41;89.24;100685.03;5003735;28;20579;-78
2021/09/13 08:14:25;;;;;;;7.60;6.87;;;;;;;15.51;89.36;100682.94;5002489;28;20707;-77
2021/09/13 08:16:52;;;;;;;6.93;6.43;;;;;;;15.44;89.31;100688.44;5004075;28;20213;-77
2021/09/13 08:19:18;;;;;;;8.13;7.40;;;;;;;15.53;89.40;100692.50;5003901;28;20257;-78
2021/09/13 08:21:45;;;;;;;8.00;7.30;;;;;;;15.54;89.10;100698.59;5003316;28;20579;-79
2021/09/13 08:24:12;;;;;;;7.00;6.50;;;;;;;15.73;88.61;100706.75;5004430;28;20256;-79
2021/09/13 08:26:39;;;;;;;6.53;5.93;;;;;;;15.86;87.96;100735.19;5003770;28;20213;-79
2021/09/13 08:29:06;;;;;;;6.33;5.80;;;;;;;15.87;87.21;100767.66;5004819;28;20248;-80
2021/09/13 08:31:34;;;;;;;5.57;5.17;;;;;;;15.95;87.68;100760.31;5006496;28;20230;-79
2021/09/13 08:34:00;;;;;;;6.37;5.20;;;;;;;16.09;87.42;100765.09;5005986;28;20416;-78
2021/09/13 08:36:27;;;;;;;6.10;5.50;;;;;;;16.15;86.58;100793.84;5006543;28;20275;-78
2021/09/13 08:38:53;;;;;;;6.00;5.40;;;;;;;16.27;86.73;100801.31;5005337;28;20215;-79
2021/09/13 08:41:20;;;;;;;5.87;5.37;;;;;;;16.12;87.02;100798.38;5005271;28;20234;-80
2021/09/13 08:43:48;;;;;;;5.37;4.87;;;;;;;16.05;86.54;100821.41;5004170;28;20431;-78
2021/09/13 08:46:18;;;;;;;5.13;4.73;;;;;;;16.07;86.42;100814.31;5005340;28;20260;-79
2021/09/13 08:48:49;;;;;;;4.20;3.80;;;;;;;16.12;85.65;100835.25;5006515;28;20206;-79
2021/09/13 08:51:29;;;;;;;3.83;3.43;;;;;;;16.34;85.62;100837.97;5005092;28;20233;-77
2021/09/13 08:53:57;;;;;;;4.10;3.70;;;;;;;16.60;85.57;100842.28;5005419;28;20218;-78
2021/09/13 08:56:28;;;;;;;4.37;4.03;;;;;;;16.82;84.39;100882.75;5004576;28;20207;-79
2021/09/13 08:58:55;;;;;;;4.37;3.30;;;;;;;16.89;83.08;100936.13;5004299;28;20996;-78
2021/09/13 09:01:21;;;;;;;2.47;2.27;;;;;;;16.72;81.32;100996.47;5004032;28;20235;-77
2021/09/13 09:03:51;;;;;;;3.13;2.53;;;;;;;16.44;82.00;100979.84;5002357;28;20258;-80
2021/09/13 09:06:35;;;;;;;2.60;2.40;;;;;;;16.51;82.24;100959.44;5004809;28;20218;-79
2021/09/13 09:09:04;;;;;;;3.47;3.17;;;;;;;16.47;82.79;100949.88;5003921;28;20233;-77
2021/09/13 09:11:50;;;;;;;4.13;3.60;;;;;;;16.61;82.25;100952.91;5004427;28;20616;-79
2021/09/13 09:14:26;;;;;;;4.00;3.70;;;;;;;16.62;82.07;100974.84;5006755;28;20219;-81
2021/09/13 09:16:57;;;;;;;4.87;3.30;;;;;;;16.72;82.14;100959.56;5006438;28;20214;-81
2021/09/13 09:19:24;;;;;;;4.30;3.93;;;;;;;16.55;82.40;100960.16;5005943;28;20209;-80
2021/09/13 09:21:51;;;;;;;5.47;4.10;;;;;;;16.72;82.63;100946.41;5004693;28;20446;-79
2021/09/13 09:24:18;;;;;;;4.53;3.77;;;;;;;16.80;81.71;100981.25;5006688;28;20269;-79
2021/09/13 09:27:01;;;;;;;4.47;3.67;;;;;;;16.82;82.09;100982.09;5005559;28;20222;-78
2021/09/13 09:29:29;;;;;;;3.70;3.40;;;;;;;16.88;81.22;101013.50;5004124;28;20417;-78
2021/09/13 09:31:56;;;;;;;3.70;3.40;;;;;;;16.83;80.96;101018.94;5004025;28;20317;-78
2021/09/13 09:34:26;;;;;;;4.70;3.17;;;;;;;16.63;80.89;101024.00;5004785;28;20961;-80
2021/09/13 09:37:05;;;;;;;2.77;2.50;;;;;;;16.78;81.36;101005.03;5004840;28;20230;-80
2021/09/13 09:39:33;;;;;;;3.30;3.00;;;;;;;16.89;80.99;101020.50;5006263;28;20203;-79
2021/09/13 09:41:59;;;;;;;6.00;4.13;;;;;;;17.01;81.11;101021.84;5003671;28;20371;-78
2021/09/13 09:44:27;;;;;;;3.87;3.07;;;;;;;17.12;80.28;101042.53;5002202;28;20728;-79
2021/09/13 09:46:54;;;;;;;2.60;2.40;;;;;;;17.21;79.21;101072.09;5005848;28;20315;-81
2021/09/13 09:49:22;;;;;;;2.73;2.43;;;;;;;17.39;79.31;101061.78;5004837;28;20820;-80
2021/09/13 09:51:52;;;;;;;5.03;3.10;;;;;;;17.44;78.12;101115.25;5006988;28;20226;-79
2021/09/13 09:54:21;;;;;;;4.33;3.57;;;;;;;17.44;78.14;101120.50;5001877;28;20245;-79
2021/09/13 09:56:56;;;;;;;3.63;2.90;;;;;;;17.39;78.51;101106.66;5005695;28;20253;-80
2021/09/13 09:59:23;;;;;;;4.37;2.97;;;;;;;17.22;81.73;100999.94;5006201;28;20296;-78
2021/09/13 10:01:53;;;;;;;6.30;3.70;;;;;;;17.16;83.94;100910.47;5005910;28;20230;-80
2021/09/13 10:04:22;;;;;;;4.70;3.30;;;;;;;17.02;85.10;100866.16;5004307;28;20206;-79
2021/09/13 10:06:52;;;;;;;4.73;2.90;;;;;;;16.97;85.01;100852.31;5005207;28;20905;-78
2021/09/13 10:09:20;;;;;;;4.07;3.20;;;;;;;17.03;85.60;100843.28;5003475;28;20222;-80
2021/09/13 10:11:48;;;;;;;5.37;2.60;;;;;;;17.03;85.25;100862.59;5007238;28;20284;-81
2021/09/13 10:14:16;;;;;;;4.57;3.07;;;;;;;17.24;84.44;100871.47;5005471;28;20257;-80
2021/09/13 10:16:45;;;;;;;4.13;2.47;;;;;;;17.43;83.61;100897.13;5005711;28;20273;-81
2021/09/13 10:19:12;;;;;;;3.27;2.20;;;;;;;17.36;82.25;100940.50;5004477;28;20644;-79
2021/09/13 10:21:38;;;;;;;2.70;2.20;;;;;;;17.32;82.98;100952.94;5002679;28;20231;-76
2021/09/13 10:24:11;;;;;;;4.47;2.33;;;;;;;17.18;83.11;100936.78;5002912;28;20241;-77
2021/09/13 10:26:40;;;;;;;4.67;2.40;;;;;;;17.16;82.33;100959.72;5005153;28;20227;-76
2021/09/13 10:29:19;;;;;;;5.37;2.50;;;;;;;17.29;81.71;100981.25;5003444;28;20203;-81
2021/09/13 10:32:04;;;;;;;3.30;2.10;;;;;;;17.40;81.81;100976.41;5005347;28;20779;-77
2021/09/13 10:34:33;;;;;;;3.83;2.23;;;;;;;17.51;82.30;100945.16;5005401;28;20207;-77
2021/09/13 10:37:02;;;;;;;4.37;2.90;;;;;;;17.70;81.31;100978.75;5004179;28;20578;-78
2021/09/13 10:39:59;;;;;;;5.43;3.00;;;;;;;17.90;80.70;101004.38;5009057;28;20242;-80
2021/09/13 10:42:38;;;;;;;3.50;3.03;;;;;;;18.10;79.18;101053.81;5008279;28;20234;-79
2021/09/13 10:45:27;;;;;;;3.80;3.40;;;;;;;18.27;78.88;101064.53;5008331;28;20272;-79
2021/09/13 10:48:06;;;;;;;3.87;2.77;;;;;;;18.05;77.22;101141.16;5008612;28;20215;-79
2021/09/13 10:50:41;;;;;;;4.40;3.00;;;;;;;18.10;76.72;101148.91;5006919;28;20691;-80
2021/09/13 10:53:36;;;;;;;3.53;3.10;;;;;;;18.17;76.17;101155.66;5009310;28;20233;-79
2021/09/13 10:56:21;;;;;;;3.70;3.10;;;;;;;18.32;77.03;101138.34;5007679;28;20199;-80
2021/09/13 10:58:50;;;;;;;3.77;3.00;;;;;;;18.26;76.59;101150.88;5010401;28;20223;-83
2021/09/13 11:01:22;;;;;;;3.40;3.10;;;;;;;18.36;75.77;101182.25;5009202;28;20227;-79
2021/09/13 11:03:51;;;;;;;5.97;3.77;;;;;;;18.44;75.44;101173.06;5008143;28;20233;-80
2021/09/13 11:06:39;;;;;;;3.47;3.10;;;;;;;18.10;76.06;101164.78;5010113;28;20201;-79
2021/09/13 11:09:08;;;;;;;3.90;3.27;;;;;;;17.91;76.84;101128.47;5008749;28;20219;-78
2021/09/13 11:11:37;;;;;;;4.20;3.70;;;;;;;17.94;77.31;101098.44;5006683;28;20239;-79
2021/09/13 11:14:06;;;;;;;4.43;3.83;;;;;;;18.03;77.60;101098.94;5005822;28;20199;-78
2021/09/13 11:16:34;;;;;;;4.07;3.67;;;;;;;18.23;77.89;101089.34;5005167;28;20274;-79
2021/09/13 11:19:02;;;;;;;4.40;3.73;;;;;;;18.33;77.36;101106.56;5005942;28;20205;-78
2021/09/13 11:21:31;;;;;;;4.23;3.40;;;;;;;18.43;75.79;101163.44;5007238;28;20231;-78
2021/09/13 11:24:00;;;;;;;4.30;3.90;;;;;;;18.63;75.91;101154.69;5006458;28;20236;-77
2021/09/13 11:26:31;;;;;;;3.73;3.37;;;;;;;18.82;75.29;101175.97;5005393;28;20213;-77